Etusivu
METAR-TAF:

METAR-TAF

Lentoasemat :

Price County Airport

Phillips, Wisconsin, Yhdysvallat

Leveyspiiri: 45-42N, Pituuspiiri: 090-24W, korkeus merenpinnasta: 449 m

Tämänhetkinen sää

Tämä raportti tehtiin 17 minuuttia sitten, kello 09.35 UTC
Tuuli 4 kn luoteesta
Lämpötila 5°C
Kosteus 48%
Ilmanpaine 1009 hPa
Näkyvyys: 16.1 km
selkeää

METAR: KPBH 260935Z AUTO 31004KT 10SM CLR 05/M05 A2981 RMK AO2 T00451046

Aika: 04:52 (09:52 UTC)


TAF: puuttuu

Säähavainnot ja -ennusteet yli 4000 lentoasemalta (METAR- ja TAF-raportit).

Käytössä olevat sääasemat on merkitty karttaan keltaisilla ja punaisilla pisteillä.

Aseta hiiri pisteen päälle nähdäksesi sääaseman nimen.

Klikkaa sitten nähdäksesi säähavainnot ja -ennusteet.

Kartan vaihtaminen: klikkaa mustalla rastilla varustettuja vihreitä pisteitä, niin voit zoomata sisään; viivalla varustettua vihreää pistettä, niin voit zoomata ulos tai vihreitä nuolia, niin pääset viereisille kartoille.


METAR-TAF: